Time;durP1;ratioP1;P1;durP2;ratioP2;P2;SDS_P1;SDS_P2;PMS_P1;PMS_P2;Temp;Humidity;BMP_temperature;BMP_pressure;BME280_temperature;BME280_humidity;BME280_pressure;Samples;Min_cycle;Max_cycle;Signal;HPM_P1;HPM_P2
2021/04/23 00:00:12;;;;;;;0.70;0.63;;;5.10;99.90;;;;;;5079872;28;20206;-61
2021/04/23 00:02:43;;;;;;;0.40;0.40;;;5.20;99.90;;;;;;5078262;28;20214;-60
2021/04/23 00:05:11;;;;;;;0.70;0.70;;;5.30;99.90;;;;;;5075973;28;20244;-60
2021/04/23 00:07:37;;;;;;;0.52;0.52;;;5.20;99.90;;;;;;5086282;28;20220;-60
2021/04/23 00:10:08;;;;;;;0.55;0.55;;;5.30;99.90;;;;;;5086199;28;20210;-61
2021/04/23 00:12:35;;;;;;;0.40;0.40;;;5.30;99.90;;;;;;5088202;28;20213;-61
2021/04/23 00:15:02;;;;;;;1.35;0.60;;;5.40;99.90;;;;;;5079576;28;20255;-61
2021/04/23 00:17:29;;;;;;;0.30;0.30;;;5.50;99.90;;;;;;5067557;28;20305;-60
2021/04/23 00:19:55;;;;;;;0.40;0.40;;;5.50;99.90;;;;;;5077023;28;20221;-62
2021/04/23 00:22:22;;;;;;;0.63;0.63;;;5.40;99.90;;;;;;5079122;28;20207;-61
2021/04/23 00:24:48;;;;;;;0.50;0.50;;;5.40;99.90;;;;;;5080193;28;20219;-61
2021/04/23 00:27:15;;;;;;;0.60;0.60;;;5.50;99.90;;;;;;5076838;28;20206;-60
2021/04/23 00:29:42;;;;;;;0.82;0.82;;;5.50;99.90;;;;;;5073624;28;20218;-61
2021/04/23 00:34:54;;;;;;;0.40;0.40;;;5.60;99.90;;;;;;5078723;28;20284;-60
2021/04/23 00:37:20;;;;;;;0.40;0.40;;;5.50;99.90;;;;;;5081860;28;20269;-61
2021/04/23 00:39:47;;;;;;;0.38;0.38;;;5.50;99.90;;;;;;5091541;28;20231;-61
2021/04/23 00:42:14;;;;;;;0.40;0.40;;;5.50;99.90;;;;;;5073577;28;20560;-61
2021/04/23 00:44:41;;;;;;;0.70;0.70;;;5.40;99.90;;;;;;5072628;28;20249;-60
2021/04/23 00:47:07;;;;;;;0.30;0.30;;;5.50;99.90;;;;;;5068917;28;20210;-60
2021/04/23 00:49:34;;;;;;;1.38;1.30;;;5.50;99.90;;;;;;5073323;28;20268;-61
2021/04/23 00:52:02;;;;;;;0.40;0.40;;;5.60;99.90;;;;;;5069936;28;20459;-62
2021/04/23 00:54:29;;;;;;;1.15;1.10;;;5.60;99.90;;;;;;5079490;28;20219;-61
2021/04/23 00:56:56;;;;;;;1.35;0.70;;;5.60;99.90;;;;;;5078930;28;20225;-60
2021/04/23 00:59:24;;;;;;;0.52;0.52;;;5.60;99.90;;;;;;5079419;28;20202;-61
2021/04/23 01:02:00;;;;;;;1.83;0.88;;;5.60;99.90;;;;;;5076122;28;20212;-61
2021/04/23 01:04:29;;;;;;;0.50;0.50;;;5.70;99.90;;;;;;5075498;28;20595;-62
2021/04/23 01:06:57;;;;;;;0.50;0.47;;;5.70;99.90;;;;;;5071288;28;20272;-62
2021/04/23 01:09:27;;;;;;;0.30;0.30;;;5.50;99.90;;;;;;5072578;28;20199;-60
2021/04/23 01:11:55;;;;;;;0.93;0.60;;;5.60;99.90;;;;;;5076625;28;20207;-60
2021/04/23 01:14:22;;;;;;;0.43;0.43;;;5.60;99.90;;;;;;5073302;28;20231;-60
2021/04/23 01:16:49;;;;;;;0.35;0.35;;;5.70;99.90;;;;;;5078200;28;20214;-60
2021/04/23 01:19:21;;;;;;;1.40;0.80;;;5.80;99.90;;;;;;5078076;28;20203;-61
2021/04/23 01:21:48;;;;;;;0.30;0.30;;;5.80;99.90;;;;;;5078492;28;20201;-61
2021/04/23 01:24:18;;;;;;;0.50;0.50;;;5.70;99.90;;;;;;5078000;28;20211;-62
2021/04/23 01:26:48;;;;;;;1.08;1.05;;;5.80;99.90;;;;;;5069733;28;20205;-61
2021/04/23 01:29:17;;;;;;;1.67;0.70;;;5.80;99.90;;;;;;5075446;28;20230;-60
2021/04/23 01:31:48;;;;;;;0.82;0.82;;;5.80;99.90;;;;;;5066605;28;20564;-61
2021/04/23 01:34:23;;;;;;;0.73;0.73;;;5.90;99.90;;;;;;5074507;28;20242;-60
2021/04/23 01:36:51;;;;;;;2.42;2.22;;;6.00;99.90;;;;;;5074557;28;20273;-62
2021/04/23 01:39:22;;;;;;;0.30;0.30;;;6.10;99.90;;;;;;5083529;28;20206;-60
2021/04/23 01:41:50;;;;;;;0.70;0.70;;;5.90;99.90;;;;;;5081554;28;20230;-61
2021/04/23 01:44:19;;;;;;;0.80;0.43;;;6.00;99.90;;;;;;5069783;28;20241;-60
2021/04/23 01:46:46;;;;;;;0.60;0.45;;;6.20;99.90;;;;;;5078137;28;20213;-60
2021/04/23 01:49:16;;;;;;;0.60;0.60;;;6.30;99.90;;;;;;5069206;28;20206;-60
2021/04/23 01:51:48;;;;;;;1.33;0.73;;;6.20;99.90;;;;;;5082694;28;20230;-59
2021/04/23 01:54:16;;;;;;;0.77;0.57;;;6.10;99.90;;;;;;5088282;28;20253;-62
2021/04/23 01:56:44;;;;;;;1.35;0.75;;;6.00;99.90;;;;;;5095246;28;21533;-63
2021/04/23 01:59:11;;;;;;;2.10;1.48;;;5.90;99.90;;;;;;5092746;28;20198;-61
2021/04/23 02:01:38;;;;;;;0.68;0.68;;;5.90;99.90;;;;;;5085860;28;20289;-61
2021/04/23 02:04:07;;;;;;;0.40;0.40;;;5.90;99.90;;;;;;5077597;28;20217;-61
2021/04/23 02:06:33;;;;;;;1.02;1.02;;;5.80;99.90;;;;;;5074173;28;20195;-62
2021/04/23 02:09:00;;;;;;;0.43;0.43;;;5.80;99.90;;;;;;5066752;28;20207;-60
2021/04/23 02:11:27;;;;;;;0.30;0.30;;;5.90;99.90;;;;;;5092463;28;20686;-61
2021/04/23 02:13:56;;;;;;;0.73;0.73;;;5.90;99.90;;;;;;5090396;28;20234;-61
2021/04/23 02:16:24;;;;;;;0.55;0.55;;;5.90;99.90;;;;;;5091548;28;20213;-61
2021/04/23 02:18:53;;;;;;;0.70;0.70;;;5.90;99.90;;;;;;5077275;28;20213;-62
2021/04/23 02:21:20;;;;;;;0.50;0.50;;;5.80;99.90;;;;;;5076905;28;20215;-62
2021/04/23 02:23:48;;;;;;;0.40;0.40;;;5.80;99.90;;;;;;5076938;28;20511;-61
2021/04/23 02:26:15;;;;;;;0.30;0.30;;;5.80;99.90;;;;;;5077364;28;20240;-60
2021/04/23 02:28:44;;;;;;;0.40;0.40;;;5.80;99.90;;;;;;5076167;28;20661;-61
2021/04/23 02:31:15;;;;;;;0.60;0.60;;;5.80;99.90;;;;;;5077132;28;20207;-60
2021/04/23 02:33:44;;;;;;;1.08;1.00;;;5.70;99.90;;;;;;5084527;28;20443;-61
2021/04/23 02:36:12;;;;;;;0.35;0.35;;;5.70;99.90;;;;;;5082576;28;20206;-60
2021/04/23 02:38:38;;;;;;;0.60;0.60;;;5.70;99.90;;;;;;5071934;28;20203;-62
2021/04/23 02:41:05;;;;;;;0.60;0.60;;;5.70;99.90;;;;;;5078620;28;20210;-61
2021/04/23 02:43:38;;;;;;;0.30;0.30;;;5.80;99.90;;;;;;5064531;28;20394;-60
2021/04/23 02:46:06;;;;;;;0.45;0.45;;;5.70;99.90;;;;;;5077026;28;20737;-61
2021/04/23 02:48:35;;;;;;;0.65;0.65;;;5.60;99.90;;;;;;5073762;28;20215;-61
2021/04/23 02:51:11;;;;;;;0.40;0.40;;;5.40;99.90;;;;;;5057986;28;20292;-59
2021/04/23 02:53:38;;;;;;;0.30;0.30;;;5.40;99.90;;;;;;5074109;28;20244;-61
2021/04/23 02:56:06;;;;;;;0.52;0.40;;;5.30;99.90;;;;;;5077277;28;20207;-60
2021/04/23 02:58:34;;;;;;;0.80;0.80;;;5.30;99.90;;;;;;5063694;28;20211;-63
2021/04/23 03:01:06;;;;;;;0.40;0.40;;;5.20;99.90;;;;;;5078260;28;20217;-61
2021/04/23 03:03:32;;;;;;;0.80;0.80;;;5.20;99.90;;;;;;5088527;28;20441;-61
2021/04/23 03:05:59;;;;;;;0.40;0.40;;;5.20;99.90;;;;;;5077246;28;20217;-61
2021/04/23 03:08:27;;;;;;;1.40;1.30;;;5.20;99.90;;;;;;5063691;28;20274;-61
2021/04/23 03:11:07;;;;;;;1.67;1.58;;;5.30;99.90;;;;;;5081093;28;20218;-61
2021/04/23 03:13:35;;;;;;;1.85;1.65;;;5.30;99.90;;;;;;5063759;28;20206;-62
2021/04/23 03:16:03;;;;;;;0.30;0.30;;;5.30;99.90;;;;;;5075727;28;20210;-62
2021/04/23 03:18:31;;;;;;;0.60;0.40;;;5.30;99.90;;;;;;5063636;28;20211;-61
2021/04/23 03:21:00;;;;;;;0.85;0.85;;;5.40;99.90;;;;;;5073174;28;20206;-61
2021/04/23 03:23:29;;;;;;;1.13;1.13;;;5.40;99.90;;;;;;5066110;28;20217;-63
2021/04/23 03:25:57;;;;;;;0.40;0.40;;;5.40;99.90;;;;;;5072875;28;20216;-61
2021/04/23 03:28:24;;;;;;;0.70;0.70;;;5.50;99.90;;;;;;5070436;28;20214;-62
2021/04/23 03:30:51;;;;;;;1.05;1.05;;;5.40;99.90;;;;;;5076787;28;20217;-61
2021/04/23 03:33:17;;;;;;;0.65;0.65;;;5.40;99.90;;;;;;5074986;28;20205;-62
2021/04/23 03:35:50;;;;;;;0.50;0.50;;;5.40;99.90;;;;;;5080381;28;20207;-61
2021/04/23 03:38:18;;;;;;;1.88;0.68;;;5.40;99.90;;;;;;5079732;28;20338;-61
2021/04/23 03:40:47;;;;;;;0.95;0.75;;;5.50;99.90;;;;;;5080239;28;20229;-61
2021/04/23 03:43:14;;;;;;;1.00;1.00;;;5.40;99.90;;;;;;5071279;28;20397;-61
2021/04/23 03:45:41;;;;;;;1.00;0.90;;;5.40;99.90;;;;;;5071014;28;20218;-61
2021/04/23 03:48:09;;;;;;;5.45;1.67;;;5.50;99.90;;;;;;5082753;28;20214;-61
2021/04/23 03:50:37;;;;;;;3.20;1.85;;;5.50;99.90;;;;;;5072701;28;20230;-61
2021/04/23 03:53:08;;;;;;;0.95;0.80;;;5.50;99.90;;;;;;5075340;28;20212;-61
2021/04/23 03:55:43;;;;;;;1.90;1.05;;;5.50;99.90;;;;;;5072645;28;20238;-62
2021/04/23 03:58:10;;;;;;;0.85;0.85;;;5.50;99.90;;;;;;5074239;28;20220;-60
2021/04/23 04:00:48;;;;;;;0.40;0.40;;;5.50;99.90;;;;;;5079039;28;20309;-62
2021/04/23 04:03:15;;;;;;;0.80;0.80;;;5.50;99.90;;;;;;5066223;28;20248;-61
2021/04/23 04:05:43;;;;;;;0.77;0.65;;;5.50;99.90;;;;;;5092923;28;20213;-61
2021/04/23 04:08:10;;;;;;;0.50;0.50;;;5.70;99.90;;;;;;5080924;28;20210;-61
2021/04/23 04:10:37;;;;;;;2.20;0.85;;;5.80;99.90;;;;;;5080099;28;20207;-61
2021/04/23 04:13:04;;;;;;;0.90;0.85;;;5.80;99.90;;;;;;5079455;28;20302;-61
2021/04/23 04:15:34;;;;;;;0.60;0.60;;;5.80;99.90;;;;;;5079770;28;20231;-61
2021/04/23 04:18:00;;;;;;;0.40;0.40;;;6.00;99.90;;;;;;5076618;28;20199;-61
2021/04/23 04:20:30;;;;;;;0.40;0.40;;;6.00;99.90;;;;;;5067667;28;20207;-62
2021/04/23 04:22:57;;;;;;;0.45;0.45;;;6.10;99.90;;;;;;5079241;28;20669;-62
2021/04/23 04:25:34;;;;;;;0.30;0.30;;;6.30;99.90;;;;;;5079486;28;20207;-62
2021/04/23 04:28:01;;;;;;;0.80;0.80;;;6.10;99.90;;;;;;5079783;28;20199;-61
2021/04/23 04:30:28;;;;;;;0.75;0.75;;;6.40;99.90;;;;;;5065661;28;20203;-62
2021/04/23 04:32:56;;;;;;;0.30;0.30;;;6.60;99.90;;;;;;5081327;28;20246;-62
2021/04/23 04:35:24;;;;;;;1.20;0.82;;;6.80;99.90;;;;;;5083561;28;20289;-61
2021/04/23 04:37:51;;;;;;;7.55;1.52;;;6.80;99.90;;;;;;5088546;28;20561;-62
2021/04/23 04:40:19;;;;;;;1.17;1.08;;;6.70;99.90;;;;;;5079537;28;20209;-61
2021/04/23 04:42:46;;;;;;;0.93;0.93;;;6.60;99.90;;;;;;5075389;28;20318;-61
2021/04/23 04:45:17;;;;;;;1.42;1.33;;;6.50;99.90;;;;;;5077030;28;20297;-62
2021/04/23 04:47:44;;;;;;;0.77;0.77;;;6.40;99.90;;;;;;5074688;28;20294;-62
2021/04/23 04:50:20;;;;;;;0.85;0.85;;;6.50;99.90;;;;;;5068627;28;20203;-62
2021/04/23 04:52:47;;;;;;;0.40;0.40;;;6.60;99.90;;;;;;5077888;28;20266;-61
2021/04/23 04:55:15;;;;;;;0.75;0.52;;;6.70;99.90;;;;;;5078371;28;20236;-61
2021/04/23 04:57:42;;;;;;;0.52;0.52;;;6.70;99.90;;;;;;5072167;28;20230;-61
2021/04/23 05:00:13;;;;;;;0.82;0.68;;;6.80;99.90;;;;;;5078638;28;20440;-61
2021/04/23 05:02:40;;;;;;;0.77;0.77;;;6.80;99.90;;;;;;5078783;28;20260;-61
2021/04/23 05:05:08;;;;;;;1.02;1.02;;;6.90;99.90;;;;;;5080605;28;20209;-61
2021/04/23 05:07:35;;;;;;;0.73;0.73;;;6.90;99.90;;;;;;5085372;28;20195;-62
2021/04/23 05:10:03;;;;;;;1.20;1.00;;;7.10;99.90;;;;;;5084834;28;20273;-61
2021/04/23 05:12:30;;;;;;;2.75;0.77;;;7.20;99.90;;;;;;5076386;28;20213;-62
2021/04/23 05:14:57;;;;;;;0.40;0.40;;;7.30;99.90;;;;;;5074836;28;20246;-62
2021/04/23 05:17:23;;;;;;;0.80;0.80;;;7.30;99.90;;;;;;5081026;28;20226;-62
2021/04/23 05:19:50;;;;;;;0.88;0.85;;;7.30;99.90;;;;;;5076729;28;20207;-62
2021/04/23 05:22:17;;;;;;;0.65;0.65;;;7.40;99.90;;;;;;5074154;28;20517;-65
2021/04/23 05:24:43;;;;;;;0.60;0.60;;;7.30;99.90;;;;;;5076485;28;20564;-66
2021/04/23 05:27:10;;;;;;;14.50;1.23;;;7.20;99.90;;;;;;5071444;28;20239;-65
2021/04/23 05:29:37;;;;;;;0.77;0.70;;;7.10;99.90;;;;;;5078165;28;20298;-62
2021/04/23 05:32:04;;;;;;;1.13;1.05;;;7.10;99.90;;;;;;5077731;28;20278;-63
2021/04/23 05:34:32;;;;;;;2.15;2.05;;;7.10;99.90;;;;;;5077865;28;20310;-62
2021/04/23 05:36:59;;;;;;;0.35;0.35;;;7.10;99.90;;;;;;5068309;28;20210;-61
2021/04/23 05:39:25;;;;;;;1.20;0.70;;;7.10;99.90;;;;;;5071586;28;20215;-63
2021/04/23 05:41:53;;;;;;;0.75;0.75;;;7.20;99.90;;;;;;5074113;28;20231;-61
2021/04/23 05:44:19;;;;;;;1.15;0.85;;;7.40;99.90;;;;;;5057996;28;20199;-62
2021/04/23 05:46:46;;;;;;;1.00;1.00;;;7.50;99.90;;;;;;5077595;28;20207;-62
2021/04/23 05:49:13;;;;;;;1.00;1.00;;;7.60;99.90;;;;;;5067716;28;20525;-63
2021/04/23 05:51:40;;;;;;;1.38;1.27;;;7.60;99.90;;;;;;5073695;28;20235;-62
2021/04/23 05:54:07;;;;;;;0.60;0.60;;;7.70;99.90;;;;;;5067218;28;20218;-63
2021/04/23 05:56:34;;;;;;;0.45;0.45;;;7.80;99.90;;;;;;5069735;28;20203;-62
2021/04/23 05:59:01;;;;;;;0.57;0.57;;;7.70;99.90;;;;;;5058421;28;20203;-61
2021/04/23 06:01:29;;;;;;;10.13;1.25;;;7.80;99.90;;;;;;5047978;28;20210;-61
2021/04/23 06:03:57;;;;;;;0.40;0.40;;;7.90;99.90;;;;;;5071237;28;20214;-62
2021/04/23 06:06:23;;;;;;;0.60;0.60;;;8.00;99.40;;;;;;5064541;28;20479;-62
2021/04/23 06:08:53;;;;;;;0.88;0.88;;;8.10;99.40;;;;;;5066740;28;20306;-62
2021/04/23 06:11:23;;;;;;;1.30;0.80;;;8.20;99.50;;;;;;5066220;28;20395;-62
2021/04/23 06:13:50;;;;;;;0.50;0.50;;;8.50;98.00;;;;;;5076343;28;20554;-61
2021/04/23 06:16:17;;;;;;;1.45;1.35;;;8.70;97.40;;;;;;5084680;28;20225;-63
2021/04/23 06:18:44;;;;;;;0.50;0.50;;;9.00;96.90;;;;;;5089975;28;20208;-64
2021/04/23 06:21:11;;;;;;;2.05;1.95;;;9.40;97.10;;;;;;5089885;28;20207;-62
2021/04/23 06:23:38;;;;;;;0.95;0.95;;;9.70;95.50;;;;;;5076179;28;20207;-63
2021/04/23 06:26:05;;;;;;;1.23;1.17;;;9.80;95.60;;;;;;5085298;28;20208;-61
2021/04/23 06:28:34;;;;;;;1.95;1.58;;;9.60;95.80;;;;;;5075927;28;20207;-63
2021/04/23 06:31:03;;;;;;;0.75;0.73;;;9.40;95.60;;;;;;5077620;28;20395;-62
2021/04/23 06:33:39;;;;;;;0.93;0.60;;;9.70;95.60;;;;;;5076471;28;20403;-62
2021/04/23 06:36:11;;;;;;;1.05;1.05;;;10.60;93.80;;;;;;5084738;28;20226;-63
2021/04/23 06:38:38;;;;;;;1.15;1.05;;;10.70;93.30;;;;;;5073828;28;20208;-62
2021/04/23 06:41:05;;;;;;;2.83;2.28;;;10.50;93.90;;;;;;5077274;28;20263;-62
2021/04/23 06:43:32;;;;;;;1.60;1.50;;;10.40;94.50;;;;;;5069921;28;20229;-62
2021/04/23 06:45:59;;;;;;;1.05;1.05;;;10.30;93.00;;;;;;5066439;28;20535;-62
2021/04/23 06:48:25;;;;;;;1.23;0.88;;;9.80;94.40;;;;;;5075957;28;20328;-61
2021/04/23 06:50:53;;;;;;;0.80;0.80;;;9.90;94.90;;;;;;5075019;28;20436;-64
2021/04/23 06:53:20;;;;;;;1.95;1.85;;;10.40;93.40;;;;;;5069218;28;20755;-63
2021/04/23 06:55:48;;;;;;;0.88;0.88;;;11.30;93.00;;;;;;5062905;28;20277;-63
2021/04/23 06:58:15;;;;;;;1.70;1.10;;;10.60;93.00;;;;;;5073605;28;20210;-62
2021/04/23 07:00:42;;;;;;;1.30;1.20;;;10.60;93.80;;;;;;5066632;28;20281;-63
2021/04/23 07:03:11;;;;;;;1.58;1.45;;;9.50;94.60;;;;;;5089899;28;20349;-62
2021/04/23 07:05:41;;;;;;;0.88;0.88;;;9.30;95.90;;;;;;5076306;28;20275;-63
2021/04/23 07:08:09;;;;;;;1.00;0.90;;;9.30;95.80;;;;;;5077507;28;20298;-64
2021/04/23 07:10:37;;;;;;;2.85;2.65;;;9.40;96.00;;;;;;5080890;28;20213;-62
2021/04/23 07:13:04;;;;;;;1.67;1.13;;;9.30;95.90;;;;;;5081391;28;21536;-63
2021/04/23 07:15:33;;;;;;;0.50;0.50;;;9.00;96.10;;;;;;5093296;28;20238;-63
2021/04/23 07:18:04;;;;;;;0.75;0.50;;;8.70;96.70;;;;;;5092527;28;20207;-63
2021/04/23 07:20:39;;;;;;;0.90;0.90;;;8.50;98.00;;;;;;5082782;28;20214;-63
2021/04/23 07:23:10;;;;;;;0.82;0.82;;;8.10;99.90;;;;;;5087517;28;20195;-62
2021/04/23 07:25:37;;;;;;;2.15;1.90;;;7.90;99.90;;;;;;5088932;28;20278;-63
2021/04/23 07:28:04;;;;;;;2.00;0.95;;;7.60;99.90;;;;;;5093811;28;20206;-64
2021/04/23 07:30:35;;;;;;;0.50;0.50;;;7.40;99.90;;;;;;5095833;28;20214;-63
2021/04/23 07:33:05;;;;;;;0.50;0.50;;;7.30;99.90;;;;;;5087041;28;20245;-62
2021/04/23 07:35:33;;;;;;;0.60;0.50;;;7.60;99.90;;;;;;5090894;28;20222;-63
2021/04/23 07:38:02;;;;;;;0.40;0.40;;;7.80;99.90;;;;;;5073414;28;20221;-61
2021/04/23 07:40:30;;;;;;;1.70;1.60;;;8.10;99.90;;;;;;5078333;28;20283;-62
2021/04/23 07:43:00;;;;;;;0.70;0.70;;;8.40;99.40;;;;;;5084757;28;20227;-62
2021/04/23 07:45:37;;;;;;;0.75;0.75;;;8.60;99.40;;;;;;5079152;28;20256;-62
2021/04/23 07:48:06;;;;;;;13.02;2.80;;;9.00;98.50;;;;;;5079747;28;20207;-63
2021/04/23 07:50:33;;;;;;;1.58;1.33;;;9.30;97.50;;;;;;5081429;28;20265;-61
2021/04/23 07:53:00;;;;;;;0.63;0.63;;;9.70;98.20;;;;;;5095091;28;20385;-62
2021/04/23 07:55:28;;;;;;;1.58;1.48;;;9.70;95.90;;;;;;5089765;28;20529;-63
2021/04/23 07:57:55;;;;;;;0.88;0.88;;;9.50;95.50;;;;;;5084836;28;20211;-63
2021/04/23 08:00:24;;;;;;;0.88;0.88;;;9.50;96.00;;;;;;5084420;28;20205;-62
2021/04/23 08:02:52;;;;;;;1.02;0.73;;;9.50;97.10;;;;;;5087588;28;20244;-63
2021/04/23 08:05:25;;;;;;;0.70;0.70;;;9.00;97.20;;;;;;5066804;28;20301;-63
2021/04/23 08:08:03;;;;;;;1.52;1.42;;;8.50;99.40;;;;;;5069501;28;20198;-62
2021/04/23 08:10:31;;;;;;;0.47;0.47;;;8.20;99.90;;;;;;5091843;28;20418;-62
2021/04/23 08:12:58;;;;;;;1.80;1.02;;;8.40;99.00;;;;;;5085106;28;20774;-62
2021/04/23 08:15:29;;;;;;;1.05;0.93;;;8.50;98.60;;;;;;5066952;28;20263;-63
2021/04/23 08:18:03;;;;;;;2.95;1.25;;;8.80;98.20;;;;;;5083028;28;20203;-62
2021/04/23 08:20:35;;;;;;;0.60;0.60;;;8.90;98.20;;;;;;5078517;28;20195;-62
2021/04/23 08:23:06;;;;;;;1.67;0.55;;;9.20;97.20;;;;;;5082132;28;20218;-62
2021/04/23 08:25:33;;;;;;;0.80;0.80;;;9.40;96.70;;;;;;5086520;28;20206;-61
2021/04/23 08:28:02;;;;;;;0.90;0.90;;;9.50;96.50;;;;;;5077880;28;20229;-63
2021/04/23 08:30:30;;;;;;;0.93;0.90;;;9.50;95.80;;;;;;5085792;28;20430;-63
2021/04/23 08:32:58;;;;;;;2.33;2.08;;;9.50;96.40;;;;;;5073716;28;20208;-62
2021/04/23 08:35:27;;;;;;;1.58;1.35;;;9.70;94.90;;;;;;5087148;28;20235;-64
2021/04/23 08:37:55;;;;;;;2.25;2.10;;;10.00;94.50;;;;;;5089155;28;20203;-63
2021/04/23 08:40:23;;;;;;;1.67;1.58;;;10.90;92.60;;;;;;5091518;28;20654;-62
2021/04/23 08:42:51;;;;;;;0.98;0.98;;;11.50;91.20;;;;;;5092036;28;20328;-61
2021/04/23 08:45:20;;;;;;;1.20;1.10;;;11.80;91.20;;;;;;5080311;28;20217;-63
2021/04/23 08:47:48;;;;;;;1.05;1.05;;;12.20;90.40;;;;;;5086267;28;20236;-63
2021/04/23 08:50:20;;;;;;;1.50;1.40;;;12.20;87.60;;;;;;5087550;28;20202;-62
2021/04/23 08:52:49;;;;;;;1.63;1.10;;;11.80;88.00;;;;;;5079410;28;20202;-62
2021/04/23 08:55:19;;;;;;;1.00;1.00;;;11.30;90.70;;;;;;5092391;28;20258;-62
2021/04/23 08:58:06;;;;;;;1.45;1.35;;;11.40;90.90;;;;;;5089596;28;20213;-62
2021/04/23 09:00:34;;;;;;;1.25;1.15;;;12.30;89.80;;;;;;5090746;28;20442;-62
2021/04/23 09:03:01;;;;;;;1.05;1.05;;;12.60;87.80;;;;;;5089944;28;20261;-63
2021/04/23 09:05:29;;;;;;;1.80;1.70;;;12.40;89.50;;;;;;5072014;28;20685;-64
2021/04/23 09:08:08;;;;;;;1.20;1.20;;;11.90;91.30;;;;;;5079194;28;20206;-62
2021/04/23 09:10:37;;;;;;;2.00;1.83;;;10.80;96.40;;;;;;5075893;28;20745;-68
2021/04/23 09:13:16;;;;;;;1.02;1.02;;;9.90;96.50;;;;;;5084595;28;20206;-63
2021/04/23 09:15:45;;;;;;;1.70;1.60;;;9.60;96.40;;;;;;5083676;28;20224;-62
2021/04/23 09:18:21;;;;;;;1.95;1.77;;;9.70;98.40;;;;;;5075497;28;20266;-62
2021/04/23 09:20:59;;;;;;;0.82;0.82;;;9.90;97.20;;;;;;5080368;28;20238;-63
2021/04/23 09:23:27;;;;;;;1.58;1.48;;;10.20;95.70;;;;;;5077992;28;20205;-62
2021/04/23 09:25:56;;;;;;;2.20;1.40;;;10.40;94.70;;;;;;5078257;28;20223;-63
2021/04/23 09:28:38;;;;;;;0.82;0.82;;;10.40;93.80;;;;;;5082442;28;20283;-63
2021/04/23 09:31:21;;;;;;;1.60;1.52;;;10.90;92.50;;;;;;5077402;28;20252;-61
2021/04/23 09:33:53;;;;;;;0.85;0.85;;;11.40;91.80;;;;;;5077539;28;20390;-62
2021/04/23 09:36:36;;;;;;;1.38;0.95;;;11.50;90.90;;;;;;5077587;28;20558;-62
2021/04/23 09:39:03;;;;;;;1.20;1.20;;;12.00;88.30;;;;;;5077699;28;20210;-62
2021/04/23 09:41:32;;;;;;;1.42;1.33;;;11.70;86.50;;;;;;5081508;28;20236;-62
2021/04/23 09:44:00;;;;;;;1.67;1.58;;;11.60;85.20;;;;;;5063286;28;20237;-62
2021/04/23 09:46:38;;;;;;;1.98;1.55;;;11.10;85.40;;;;;;5064564;28;20214;-63
2021/04/23 09:49:20;;;;;;;2.08;1.98;;;10.90;87.20;;;;;;5068453;28;20227;-64
2021/04/23 09:51:47;;;;;;;1.30;1.30;;;10.80;87.30;;;;;;5076349;28;20232;-62
2021/04/23 09:54:21;;;;;;;1.23;1.23;;;11.00;89.50;;;;;;5084861;28;20210;-66
2021/04/23 09:56:55;;;;;;;2.00;1.90;;;11.10;86.00;;;;;;5083485;28;20278;-62
2021/04/23 09:59:31;;;;;;;1.45;1.45;;;11.40;86.60;;;;;;5081260;28;20209;-62
2021/04/23 10:02:02;;;;;;;1.65;1.65;;;11.60;83.50;;;;;;5091200;28;20480;-62
2021/04/23 10:04:34;;;;;;;2.30;2.10;;;11.60;84.20;;;;;;5083248;28;20210;-66
2021/04/23 10:07:38;;;;;;;3.38;2.75;;;11.50;83.40;;;;;;5087819;28;20243;-63
2021/04/23 10:10:10;;;;;;;1.92;1.83;;;11.50;83.80;;;;;;5064617;28;20532;-62
2021/04/23 10:12:54;;;;;;;1.65;1.55;;;11.50;83.70;;;;;;5071438;28;20217;-62
2021/04/23 10:15:27;;;;;;;2.28;2.17;;;11.70;81.90;;;;;;5075912;28;20252;-63
2021/04/23 10:17:57;;;;;;;2.30;2.20;;;11.70;83.50;;;;;;5087447;28;20210;-63
2021/04/23 10:20:30;;;;;;;1.83;1.80;;;11.80;82.40;;;;;;5081736;28;20209;-63
2021/04/23 10:22:59;;;;;;;3.17;2.83;;;12.50;83.70;;;;;;5081192;28;20214;-63
2021/04/23 10:25:29;;;;;;;2.28;2.17;;;13.00;82.00;;;;;;5087174;28;20577;-62
2021/04/23 10:27:58;;;;;;;2.13;2.08;;;13.30;77.60;;;;;;5075549;28;20211;-63
2021/04/23 10:30:30;;;;;;;2.28;2.17;;;13.40;77.10;;;;;;5076111;28;20385;-62
2021/04/23 10:33:08;;;;;;;2.33;2.25;;;13.70;73.80;;;;;;5084594;28;20216;-62
2021/04/23 10:35:45;;;;;;;1.90;1.90;;;13.40;74.70;;;;;;5091075;28;20477;-62
2021/04/23 10:38:15;;;;;;;2.72;2.63;;;12.50;77.10;;;;;;5083393;28;20396;-61
2021/04/23 10:40:45;;;;;;;2.67;2.58;;;12.10;79.30;;;;;;5071445;28;20238;-61
2021/04/23 10:43:15;;;;;;;2.33;2.22;;;11.50;82.10;;;;;;5078001;28;20232;-62
2021/04/23 10:45:49;;;;;;;2.50;2.40;;;11.20;82.50;;;;;;5068286;28;20521;-62
2021/04/23 10:48:17;;;;;;;1.80;1.80;;;10.70;83.20;;;;;;5066747;28;20222;-63
2021/04/23 10:50:58;;;;;;;2.45;2.35;;;10.30;83.10;;;;;;5071096;28;20269;-61
2021/04/23 10:53:26;;;;;;;1.98;1.88;;;10.20;84.80;;;;;;5074208;28;20290;-62
2021/04/23 10:56:05;;;;;;;1.85;1.80;;;10.30;86.20;;;;;;5073361;28;20228;-61
2021/04/23 10:58:39;;;;;;;2.08;2.03;;;10.50;83.80;;;;;;5080893;28;20275;-62
2021/04/23 11:01:15;;;;;;;2.13;2.03;;;10.60;84.60;;;;;;5077744;28;20209;-62
2021/04/23 11:04:01;;;;;;;1.80;1.80;;;11.10;83.40;;;;;;5094695;28;20275;-64
2021/04/23 11:06:32;;;;;;;1.70;1.70;;;11.20;79.80;;;;;;5077011;28;20211;-62
2021/04/23 11:09:19;;;;;;;2.42;2.33;;;11.50;82.00;;;;;;5073712;28;20277;-63
2021/04/23 11:12:07;;;;;;;2.00;2.00;;;12.20;79.00;;;;;;5060001;28;20215;-62
2021/04/23 11:14:42;;;;;;;2.70;2.63;;;12.40;77.00;;;;;;5063444;28;20230;-63
2021/04/23 11:17:18;;;;;;;2.10;2.10;;;12.10;78.50;;;;;;5060217;28;20230;-63
2021/04/23 11:19:50;;;;;;;2.47;2.38;;;11.60;77.60;;;;;;5061775;28;20393;-62
2021/04/23 11:22:23;;;;;;;1.92;1.92;;;11.10;81.90;;;;;;5079664;28;20436;-62
2021/04/23 11:25:18;;;;;;;1.90;1.90;;;11.10;82.60;;;;;;5075135;28;20244;-62
2021/04/23 11:28:09;;;;;;;2.05;2.05;;;11.30;82.90;;;;;;5076187;28;20263;-63
2021/04/23 11:30:54;;;;;;;1.70;1.70;;;11.50;81.60;;;;;;5074146;28;20199;-63
2021/04/23 11:33:47;;;;;;;1.80;1.80;;;11.80;81.70;;;;;;5074857;28;20205;-62
2021/04/23 11:36:44;;;;;;;2.40;2.30;;;11.70;83.20;;;;;;5081626;28;20231;-62
2021/04/23 11:39:20;;;;;;;2.13;2.03;;;11.30;81.70;;;;;;5068848;28;20435;-63
2021/04/23 11:42:16;;;;;;;2.05;2.05;;;11.10;83.50;;;;;;5078193;28;20213;-62
2021/04/23 11:45:22;;;;;;;1.77;1.77;;;10.90;83.10;;;;;;5064223;28;20211;-63
2021/04/23 11:47:52;;;;;;;2.25;2.15;;;11.00;82.00;;;;;;5045456;28;20213;-62
2021/04/23 11:50:34;;;;;;;1.55;1.55;;;10.70;81.70;;;;;;5076808;28;20446;-63
2021/04/23 11:53:08;;;;;;;1.90;1.88;;;10.80;83.90;;;;;;5076338;28;20204;-64
2021/04/23 11:55:41;;;;;;;1.60;1.60;;;10.90;83.40;;;;;;5088450;28;20245;-63
2021/04/23 11:58:13;;;;;;;2.40;2.30;;;11.20;83.20;;;;;;5073880;28;20277;-62
2021/04/23 12:00:46;;;;;;;1.65;1.65;;;11.30;81.80;;;;;;5079417;28;20209;-62
2021/04/23 12:03:20;;;;;;;1.60;1.58;;;11.50;81.50;;;;;;5097011;28;20220;-62
2021/04/23 12:05:52;;;;;;;2.13;2.10;;;12.00;80.80;;;;;;5094533;28;20426;-62
2021/04/23 12:08:22;;;;;;;1.75;1.75;;;12.20;79.80;;;;;;5100660;28;20576;-63
2021/04/23 12:11:04;;;;;;;3.03;2.83;;;12.10;77.10;;;;;;5097343;28;20206;-63
2021/04/23 12:13:39;;;;;;;2.72;2.60;;;11.90;79.90;;;;;;5087597;28;20218;-64
2021/04/23 12:16:13;;;;;;;2.80;2.70;;;11.80;78.00;;;;;;5088772;28;20248;-64
2021/04/23 12:18:47;;;;;;;2.58;2.47;;;11.40;79.10;;;;;;5087091;28;20412;-61
2021/04/23 12:21:16;;;;;;;2.13;2.10;;;11.50;79.30;;;;;;5088808;28;20244;-63
2021/04/23 12:23:45;;;;;;;2.85;2.72;;;11.60;78.80;;;;;;5084917;28;21705;-63
2021/04/23 12:26:15;;;;;;;1.70;1.70;;;11.20;78.40;;;;;;5092205;28;20228;-62
2021/04/23 12:28:48;;;;;;;2.55;2.45;;;11.20;79.70;;;;;;5092026;28;20206;-62
2021/04/23 12:31:19;;;;;;;2.15;2.05;;;11.50;80.60;;;;;;5088801;28;20209;-63
2021/04/23 12:33:48;;;;;;;2.50;2.40;;;11.40;76.50;;;;;;5088042;28;20267;-62
2021/04/23 12:36:32;;;;;;;1.98;1.98;;;11.00;77.90;;;;;;5092965;28;20252;-62
2021/04/23 12:39:06;;;;;;;2.30;2.20;;;11.40;76.10;;;;;;5071118;28;20216;-62
2021/04/23 12:41:37;;;;;;;1.77;1.77;;;11.30;76.40;;;;;;5081399;28;20581;-61
2021/04/23 12:44:07;;;;;;;2.17;2.17;;;11.50;75.50;;;;;;5078912;28;20296;-62
2021/04/23 12:46:42;;;;;;;3.22;3.13;;;11.60;72.80;;;;;;5078108;28;20210;-63
2021/04/23 12:49:13;;;;;;;2.00;2.00;;;11.70;71.20;;;;;;5095784;28;20201;-61
2021/04/23 12:51:45;;;;;;;2.33;2.22;;;11.70;72.10;;;;;;5084455;28;20244;-62
2021/04/23 12:54:13;;;;;;;2.10;2.03;;;11.40;73.60;;;;;;5078102;28;20214;-61
2021/04/23 12:56:48;;;;;;;1.90;1.90;;;11.30;77.00;;;;;;5071991;28;20211;-62
2021/04/23 12:59:42;;;;;;;2.80;2.70;;;11.20;77.40;;;;;;5077256;28;20205;-62
2021/04/23 13:02:26;;;;;;;3.00;2.00;;;11.10;78.20;;;;;;5076887;28;20568;-64
2021/04/23 13:05:05;;;;;;;1.90;1.90;;;10.90;79.50;;;;;;5081994;28;20210;-62
2021/04/23 13:07:53;;;;;;;1.85;1.80;;;10.90;78.20;;;;;;5077383;28;20640;-62
2021/04/23 13:10:38;;;;;;;1.70;1.70;;;11.10;78.70;;;;;;5075084;28;20206;-62
2021/04/23 13:13:13;;;;;;;2.53;2.42;;;11.60;78.20;;;;;;5082847;28;20523;-61